sensor_id;sensor_type;location;lat;lon;timestamp;pressure;altitude;pressure_sealevel;temperature;humidity
74230;BME280;62589;12.568;99.958;2022-10-31T00:00:45;100850.91;;;32.85;54.01
74230;BME280;62589;12.568;99.958;2022-10-31T00:03:12;100854.09;;;32.87;53.79
74230;BME280;62589;12.568;99.958;2022-10-31T00:05:47;100860.50;;;32.91;54.05
74230;BME280;62589;12.568;99.958;2022-10-31T00:08:15;100859.72;;;32.94;53.97
74230;BME280;62589;12.568;99.958;2022-10-31T00:10:42;100867.72;;;32.99;53.51
74230;BME280;62589;12.568;99.958;2022-10-31T00:13:10;100870.16;;;33.04;53.79
74230;BME280;62589;12.568;99.958;2022-10-31T00:15:39;100874.13;;;33.10;53.83
74230;BME280;62589;12.568;99.958;2022-10-31T00:18:08;100882.13;;;33.16;53.73
74230;BME280;62589;12.568;99.958;2022-10-31T00:20:35;100881.78;;;33.21;54.07
74230;BME280;62589;12.568;99.958;2022-10-31T00:23:02;100885.03;;;33.30;53.52
74230;BME280;62589;12.568;99.958;2022-10-31T00:25:34;100888.25;;;33.35;53.65
74230;BME280;62589;12.568;99.958;2022-10-31T00:28:02;100897.44;;;33.43;53.12
74230;BME280;62589;12.568;99.958;2022-10-31T00:30:29;100891.88;;;33.50;53.13
74230;BME280;62589;12.568;99.958;2022-10-31T00:32:55;100903.88;;;33.58;53.03
74230;BME280;62589;12.568;99.958;2022-10-31T00:35:22;100895.94;;;33.63;52.88
74230;BME280;62589;12.568;99.958;2022-10-31T00:37:49;100895.97;;;33.70;52.70
74230;BME280;62589;12.568;99.958;2022-10-31T00:40:16;100905.53;;;33.76;52.07
74230;BME280;62589;12.568;99.958;2022-10-31T00:42:43;100903.63;;;33.84;52.33
74230;BME280;62589;12.568;99.958;2022-10-31T00:45:10;100901.66;;;33.92;52.28
74230;BME280;62589;12.568;99.958;2022-10-31T00:47:37;100912.03;;;34.02;51.61
74230;BME280;62589;12.568;99.958;2022-10-31T00:50:06;100921.63;;;34.08;51.78
74230;BME280;62589;12.568;99.958;2022-10-31T00:52:33;100919.63;;;34.16;51.30
74230;BME280;62589;12.568;99.958;2022-10-31T00:54:59;100919.28;;;34.24;50.98
74230;BME280;62589;12.568;99.958;2022-10-31T00:57:26;100916.13;;;34.33;51.15
74230;BME280;62589;12.568;99.958;2022-10-31T00:59:53;100923.31;;;34.41;50.80
74230;BME280;62589;12.568;99.958;2022-10-31T01:02:20;100925.72;;;34.50;50.72
74230;BME280;62589;12.568;99.958;2022-10-31T01:04:46;100930.91;;;34.58;50.24
74230;BME280;62589;12.568;99.958;2022-10-31T01:07:13;100931.31;;;34.67;50.00
74230;BME280;62589;12.568;99.958;2022-10-31T01:09:40;100931.31;;;34.71;49.73
74230;BME280;62589;12.568;99.958;2022-10-31T01:12:07;100931.72;;;34.76;48.78
74230;BME280;62589;12.568;99.958;2022-10-31T01:14:34;100938.91;;;34.81;48.77
74230;BME280;62589;12.568;99.958;2022-10-31T01:17:00;100942.91;;;34.91;48.50
74230;BME280;62589;12.568;99.958;2022-10-31T01:19:27;100940.91;;;34.98;48.35
74230;BME280;62589;12.568;99.958;2022-10-31T01:21:55;100936.53;;;35.04;48.15
74230;BME280;62589;12.568;99.958;2022-10-31T01:24:22;100945.28;;;35.13;47.99
74230;BME280;62589;12.568;99.958;2022-10-31T01:26:48;100956.84;;;35.23;47.90
74230;BME280;62589;12.568;99.958;2022-10-31T01:29:15;100949.28;;;35.30;48.09
74230;BME280;62589;12.568;99.958;2022-10-31T01:31:42;100945.66;;;35.37;48.03
74230;BME280;62589;12.568;99.958;2022-10-31T01:34:13;100953.25;;;35.43;47.43
74230;BME280;62589;12.568;99.958;2022-10-31T01:36:41;100950.84;;;35.49;46.65
74230;BME280;62589;12.568;99.958;2022-10-31T01:39:14;100957.19;;;35.57;46.67
74230;BME280;62589;12.568;99.958;2022-10-31T01:41:44;100947.22;;;35.63;46.48
74230;BME280;62589;12.568;99.958;2022-10-31T01:47:21;100947.97;;;35.81;45.77
74230;BME280;62589;12.568;99.958;2022-10-31T01:49:56;100944.75;;;35.90;45.63
74230;BME280;62589;12.568;99.958;2022-10-31T01:52:38;100953.47;;;35.99;45.95
74230;BME280;62589;12.568;99.958;2022-10-31T01:55:13;100963.84;;;36.05;45.36
74230;BME280;62589;12.568;99.958;2022-10-31T01:57:45;100960.63;;;36.14;44.79
74230;BME280;62589;12.568;99.958;2022-10-31T02:00:13;100964.97;;;36.19;44.47
74230;BME280;62589;12.568;99.958;2022-10-31T02:02:41;100964.56;;;36.27;44.38
74230;BME280;62589;12.568;99.958;2022-10-31T02:05:16;100966.53;;;36.34;44.30
74230;BME280;62589;12.568;99.958;2022-10-31T02:07:56;100972.47;;;36.39;44.32
74230;BME280;62589;12.568;99.958;2022-10-31T02:10:23;100977.22;;;36.46;43.91
74230;BME280;62589;12.568;99.958;2022-10-31T02:12:53;100972.00;;;36.52;44.01
74230;BME280;62589;12.568;99.958;2022-10-31T02:15:21;100984.31;;;36.61;44.00
74230;BME280;62589;12.568;99.958;2022-10-31T02:17:48;100980.72;;;36.64;43.57
74230;BME280;62589;12.568;99.958;2022-10-31T02:20:23;100980.28;;;36.69;43.82
74230;BME280;62589;12.568;99.958;2022-10-31T02:26:05;100982.59;;;36.85;43.44
74230;BME280;62589;12.568;99.958;2022-10-31T02:29:01;100985.31;;;36.96;43.25
74230;BME280;62589;12.568;99.958;2022-10-31T02:31:46;100978.44;;;37.00;43.85
74230;BME280;62589;12.568;99.958;2022-10-31T02:43:12;100992.66;;;37.27;43.20
74230;BME280;62589;12.568;99.958;2022-10-31T02:45:55;100988.22;;;37.30;41.98
74230;BME280;62589;12.568;99.958;2022-10-31T02:48:28;100983.78;;;37.36;41.83
74230;BME280;62589;12.568;99.958;2022-10-31T02:50:59;100981.78;;;37.36;41.76
74230;BME280;62589;12.568;99.958;2022-10-31T02:53:27;100986.13;;;37.41;41.69
74230;BME280;62589;12.568;99.958;2022-10-31T02:56:17;100978.41;;;37.52;41.85
74230;BME280;62589;12.568;99.958;2022-10-31T02:59:01;100975.59;;;37.52;41.95
74230;BME280;62589;12.568;99.958;2022-10-31T03:01:58;100983.56;;;37.57;41.54
74230;BME280;62589;12.568;99.958;2022-10-31T03:10:54;100971.41;;;37.71;41.13
74230;BME280;62589;12.568;99.958;2022-10-31T03:13:49;100968.97;;;37.76;41.30
74230;BME280;62589;12.568;99.958;2022-10-31T03:19:31;100967.22;;;37.86;40.86
74230;BME280;62589;12.568;99.958;2022-10-31T03:22:15;100961.22;;;37.88;40.70
74230;BME280;62589;12.568;99.958;2022-10-31T03:24:43;100963.56;;;37.93;40.39
74230;BME280;62589;12.568;99.958;2022-10-31T03:27:13;100966.31;;;37.96;40.02
74230;BME280;62589;12.568;99.958;2022-10-31T03:29:43;100961.06;;;38.02;40.15
74230;BME280;62589;12.568;99.958;2022-10-31T03:32:15;100959.75;;;38.06;40.37
74230;BME280;62589;12.568;99.958;2022-10-31T03:34:43;100950.94;;;38.08;40.25
74230;BME280;62589;12.568;99.958;2022-10-31T03:37:14;100955.31;;;38.12;40.06
74230;BME280;62589;12.568;99.958;2022-10-31T03:39:44;100948.44;;;38.17;39.63
74230;BME280;62589;12.568;99.958;2022-10-31T03:42:16;100946.81;;;38.20;39.68
74230;BME280;62589;12.568;99.958;2022-10-31T03:44:49;100942.75;;;38.24;39.91
74230;BME280;62589;12.568;99.958;2022-10-31T03:47:18;100937.81;;;38.32;40.09
74230;BME280;62589;12.568;99.958;2022-10-31T03:49:44;100936.22;;;38.31;40.12
74230;BME280;62589;12.568;99.958;2022-10-31T03:52:26;100918.13;;;38.35;38.86
74230;BME280;62589;12.568;99.958;2022-10-31T03:57:59;100900.78;;;38.44;38.97
74230;BME280;62589;12.568;99.958;2022-10-31T04:00:30;100904.38;;;38.44;38.92
74230;BME280;62589;12.568;99.958;2022-10-31T04:03:11;100899.91;;;38.47;38.35
74230;BME280;62589;12.568;99.958;2022-10-31T04:05:42;100902.72;;;38.47;38.66
74230;BME280;62589;12.568;99.958;2022-10-31T04:08:14;100891.06;;;38.48;39.17
74230;BME280;62589;12.568;99.958;2022-10-31T04:10:43;100883.03;;;38.50;38.76
74230;BME280;62589;12.568;99.958;2022-10-31T04:13:14;100873.34;;;38.55;38.98
74230;BME280;62589;12.568;99.958;2022-10-31T04:15:43;100878.44;;;38.64;39.54
74230;BME280;62589;12.568;99.958;2022-10-31T04:18:10;100873.97;;;38.66;39.12
74230;BME280;62589;12.568;99.958;2022-10-31T04:20:39;100873.91;;;38.70;39.51
74230;BME280;62589;12.568;99.958;2022-10-31T04:23:18;100863.50;;;38.70;39.19
74230;BME280;62589;12.568;99.958;2022-10-31T04:25:45;100857.09;;;38.70;38.96
74230;BME280;62589;12.568;99.958;2022-10-31T04:28:11;100857.44;;;38.72;39.07
74230;BME280;62589;12.568;99.958;2022-10-31T04:30:37;100846.22;;;38.72;39.24
74230;BME280;62589;12.568;99.958;2022-10-31T04:33:04;100850.63;;;38.73;39.02
74230;BME280;62589;12.568;99.958;2022-10-31T04:35:30;100848.53;;;38.77;38.98
74230;BME280;62589;12.568;99.958;2022-10-31T04:37:56;100837.25;;;38.80;39.46
74230;BME280;62589;12.568;99.958;2022-10-31T04:40:23;100835.25;;;38.81;39.10
74230;BME280;62589;12.568;99.958;2022-10-31T04:42:49;100832.06;;;38.79;37.22
74230;BME280;62589;12.568;99.958;2022-10-31T04:45:16;100822.44;;;38.80;38.07
74230;BME280;62589;12.568;99.958;2022-10-31T04:47:42;100828.00;;;38.83;38.17
74230;BME280;62589;12.568;99.958;2022-10-31T04:50:08;100829.94;;;38.87;38.21
74230;BME280;62589;12.568;99.958;2022-10-31T04:52:45;100835.47;;;38.90;38.20
74230;BME280;62589;12.568;99.958;2022-10-31T04:55:12;100816.66;;;38.87;37.15
74230;BME280;62589;12.568;99.958;2022-10-31T04:57:43;100819.84;;;38.89;37.37
74230;BME280;62589;12.568;99.958;2022-10-31T05:00:12;100820.94;;;38.95;38.13
74230;BME280;62589;12.568;99.958;2022-10-31T05:02:46;100816.88;;;39.00;38.49
74230;BME280;62589;12.568;99.958;2022-10-31T05:05:14;100813.94;;;39.07;39.01
74230;BME280;62589;12.568;99.958;2022-10-31T05:07:43;100816.28;;;39.08;38.90
74230;BME280;62589;12.568;99.958;2022-10-31T05:10:11;100816.59;;;39.14;38.67
74230;BME280;62589;12.568;99.958;2022-10-31T05:12:44;100811.41;;;39.12;38.14
74230;BME280;62589;12.568;99.958;2022-10-31T05:15:11;100808.66;;;39.29;38.39
74230;BME280;62589;12.568;99.958;2022-10-31T05:17:37;100810.41;;;39.23;38.13
74230;BME280;62589;12.568;99.958;2022-10-31T05:20:04;100813.56;;;39.25;38.48
74230;BME280;62589;12.568;99.958;2022-10-31T05:22:30;100806.00;;;39.22;37.72
74230;BME280;62589;12.568;99.958;2022-10-31T05:24:57;100806.88;;;39.18;36.84
74230;BME280;62589;12.568;99.958;2022-10-31T05:27:23;100794.50;;;39.16;37.33
74230;BME280;62589;12.568;99.958;2022-10-31T05:29:49;100791.97;;;39.22;37.57
74230;BME280;62589;12.568;99.958;2022-10-31T05:32:16;100788.72;;;39.23;37.87
74230;BME280;62589;12.568;99.958;2022-10-31T05:34:42;100785.06;;;39.26;38.45
74230;BME280;62589;12.568;99.958;2022-10-31T05:37:08;100787.78;;;39.30;37.95
74230;BME280;62589;12.568;99.958;2022-10-31T05:39:34;100777.31;;;39.30;37.74
74230;BME280;62589;12.568;99.958;2022-10-31T05:42:01;100770.91;;;39.30;36.49
74230;BME280;62589;12.568;99.958;2022-10-31T05:44:29;100770.13;;;39.29;37.26
74230;BME280;62589;12.568;99.958;2022-10-31T05:46:55;100772.88;;;39.33;37.38
74230;BME280;62589;12.568;99.958;2022-10-31T05:49:22;100767.25;;;39.33;38.50
74230;BME280;62589;12.568;99.958;2022-10-31T05:51:49;100757.25;;;39.32;38.91
74230;BME280;62589;12.568;99.958;2022-10-31T05:54:16;100754.84;;;39.30;38.31
74230;BME280;62589;12.568;99.958;2022-10-31T05:56:42;100749.25;;;39.30;37.60
74230;BME280;62589;12.568;99.958;2022-10-31T05:59:09;100742.03;;;39.29;37.91
74230;BME280;62589;12.568;99.958;2022-10-31T06:01:36;100732.22;;;39.21;36.73
74230;BME280;62589;12.568;99.958;2022-10-31T06:04:02;100729.13;;;39.15;37.29
74230;BME280;62589;12.568;99.958;2022-10-31T06:06:29;100739.97;;;39.13;36.42
74230;BME280;62589;12.568;99.958;2022-10-31T06:08:56;100729.25;;;39.08;36.05
74230;BME280;62589;12.568;99.958;2022-10-31T06:11:23;100730.16;;;39.05;35.03
74230;BME280;62589;12.568;99.958;2022-10-31T06:13:49;100720.94;;;39.05;35.26
74230;BME280;62589;12.568;99.958;2022-10-31T06:16:16;100717.41;;;39.01;34.99
74230;BME280;62589;12.568;99.958;2022-10-31T06:18:43;100720.13;;;39.04;35.23
74230;BME280;62589;12.568;99.958;2022-10-31T06:21:10;100717.34;;;39.04;35.40
74230;BME280;62589;12.568;99.958;2022-10-31T06:23:36;100714.53;;;39.04;35.25
74230;BME280;62589;12.568;99.958;2022-10-31T06:26:03;100712.06;;;39.06;35.72
74230;BME280;62589;12.568;99.958;2022-10-31T06:28:30;100706.91;;;39.05;36.14
74230;BME280;62589;12.568;99.958;2022-10-31T06:30:56;100706.09;;;39.04;35.38
74230;BME280;62589;12.568;99.958;2022-10-31T06:33:23;100700.91;;;39.03;36.12
74230;BME280;62589;12.568;99.958;2022-10-31T06:35:50;100701.72;;;39.03;36.05
74230;BME280;62589;12.568;99.958;2022-10-31T06:38:16;100692.84;;;39.05;35.88
74230;BME280;62589;12.568;99.958;2022-10-31T06:40:43;100678.47;;;39.03;36.66
74230;BME280;62589;12.568;99.958;2022-10-31T06:43:10;100676.44;;;39.03;36.42
74230;BME280;62589;12.568;99.958;2022-10-31T06:45:37;100677.66;;;39.02;36.79
74230;BME280;62589;12.568;99.958;2022-10-31T06:48:04;100666.00;;;39.04;36.52
74230;BME280;62589;12.568;99.958;2022-10-31T06:50:31;100670.75;;;39.07;37.44
74230;BME280;62589;12.568;99.958;2022-10-31T06:52:58;100665.94;;;39.07;37.45
74230;BME280;62589;12.568;99.958;2022-10-31T06:55:26;100656.78;;;39.03;36.98
74230;BME280;62589;12.568;99.958;2022-10-31T06:58:00;100654.84;;;39.00;36.63
74230;BME280;62589;12.568;99.958;2022-10-31T07:00:29;100640.81;;;39.00;36.31
74230;BME280;62589;12.568;99.958;2022-10-31T07:03:01;100640.81;;;39.00;36.56
74230;BME280;62589;12.568;99.958;2022-10-31T07:05:29;100637.25;;;38.96;36.22
74230;BME280;62589;12.568;99.958;2022-10-31T07:08:01;100631.66;;;38.96;36.12
74230;BME280;62589;12.568;99.958;2022-10-31T07:10:30;100620.41;;;38.96;36.50
74230;BME280;62589;12.568;99.958;2022-10-31T07:12:59;100614.81;;;38.96;36.83
74230;BME280;62589;12.568;99.958;2022-10-31T07:15:28;100613.66;;;38.94;37.06
74230;BME280;62589;12.568;99.958;2022-10-31T07:18:00;100618.13;;;38.91;37.53
74230;BME280;62589;12.568;99.958;2022-10-31T07:20:28;100609.69;;;38.91;37.52
74230;BME280;62589;12.568;99.958;2022-10-31T07:22:55;100603.72;;;38.89;37.79
74230;BME280;62589;12.568;99.958;2022-10-31T07:25:22;100605.84;;;38.85;37.45
74230;BME280;62589;12.568;99.958;2022-10-31T07:28:01;100607.84;;;38.84;37.67
74230;BME280;62589;12.568;99.958;2022-10-31T07:30:29;100602.31;;;38.81;37.39
74230;BME280;62589;12.568;99.958;2022-10-31T07:32:57;100598.72;;;38.80;37.58
74230;BME280;62589;12.568;99.958;2022-10-31T07:35:26;100593.19;;;38.77;37.80
74230;BME280;62589;12.568;99.958;2022-10-31T07:37:53;100591.59;;;38.76;37.87
74230;BME280;62589;12.568;99.958;2022-10-31T07:40:33;100586.84;;;38.73;38.20
74230;BME280;62589;12.568;99.958;2022-10-31T07:43:00;100582.03;;;38.73;38.22
74230;BME280;62589;12.568;99.958;2022-10-31T07:45:26;100581.22;;;38.73;38.20
74230;BME280;62589;12.568;99.958;2022-10-31T07:47:53;100583.25;;;38.72;38.89
74230;BME280;62589;12.568;99.958;2022-10-31T07:50:24;100578.06;;;38.71;38.76
74230;BME280;62589;12.568;99.958;2022-10-31T07:53:05;100564.41;;;38.73;38.73
74230;BME280;62589;12.568;99.958;2022-10-31T07:55:33;100563.69;;;38.69;38.44
74230;BME280;62589;12.568;99.958;2022-10-31T07:58:02;100566.13;;;38.67;38.48
74230;BME280;62589;12.568;99.958;2022-10-31T08:00:30;100557.38;;;38.65;39.10
74230;BME280;62589;12.568;99.958;2022-10-31T08:03:01;100556.59;;;38.64;39.00
74230;BME280;62589;12.568;99.958;2022-10-31T08:05:28;100556.91;;;38.66;39.04
74230;BME280;62589;12.568;99.958;2022-10-31T08:07:56;100546.50;;;38.67;39.40
74230;BME280;62589;12.568;99.958;2022-10-31T08:10:24;100551.78;;;38.65;39.36
74230;BME280;62589;12.568;99.958;2022-10-31T08:13:12;100554.91;;;38.67;39.14
74230;BME280;62589;12.568;99.958;2022-10-31T08:15:39;100552.63;;;38.62;39.65
74230;BME280;62589;12.568;99.958;2022-10-31T08:18:12;100557.44;;;38.61;39.33
74230;BME280;62589;12.568;99.958;2022-10-31T08:20:41;100555.88;;;38.60;39.68
74230;BME280;62589;12.568;99.958;2022-10-31T08:23:12;100549.94;;;38.55;39.73
74230;BME280;62589;12.568;99.958;2022-10-31T08:25:39;100550.34;;;38.57;39.21
74230;BME280;62589;12.568;99.958;2022-10-31T08:28:09;100543.97;;;38.53;39.61
74230;BME280;62589;12.568;99.958;2022-10-31T08:30:37;100536.78;;;38.51;39.62
74230;BME280;62589;12.568;99.958;2022-10-31T08:33:09;100543.25;;;38.48;39.53
74230;BME280;62589;12.568;99.958;2022-10-31T08:35:36;100544.47;;;38.47;39.86
74230;BME280;62589;12.568;99.958;2022-10-31T08:38:03;100546.91;;;38.45;40.43
74230;BME280;62589;12.568;99.958;2022-10-31T08:40:31;100544.22;;;38.42;40.06
74230;BME280;62589;12.568;99.958;2022-10-31T08:45:37;100549.41;;;38.43;40.54
74230;BME280;62589;12.568;99.958;2022-10-31T08:48:06;100550.69;;;38.39;40.98
74230;BME280;62589;12.568;99.958;2022-10-31T08:50:34;100556.28;;;38.39;40.59
74230;BME280;62589;12.568;99.958;2022-10-31T08:53:03;100569.16;;;38.36;40.86
74230;BME280;62589;12.568;99.958;2022-10-31T08:55:30;100555.56;;;38.35;40.44
74230;BME280;62589;12.568;99.958;2022-10-31T08:57:57;100557.22;;;38.32;40.59
74230;BME280;62589;12.568;99.958;2022-10-31T09:00:25;100565.28;;;38.30;40.69
74230;BME280;62589;12.568;99.958;2022-10-31T09:02:56;100564.91;;;38.28;41.09
74230;BME280;62589;12.568;99.958;2022-10-31T09:05:23;100560.94;;;38.26;41.13
74230;BME280;62589;12.568;99.958;2022-10-31T09:07:50;100563.06;;;38.22;41.12
74230;BME280;62589;12.568;99.958;2022-10-31T09:10:17;100567.50;;;38.19;40.71
74230;BME280;62589;12.568;99.958;2022-10-31T09:12:44;100567.56;;;38.15;40.88
74230;BME280;62589;12.568;99.958;2022-10-31T09:15:10;100575.19;;;38.15;41.14
74230;BME280;62589;12.568;99.958;2022-10-31T09:17:37;100570.03;;;38.13;41.15
74230;BME280;62589;12.568;99.958;2022-10-31T09:20:04;100571.28;;;38.09;41.16
74230;BME280;62589;12.568;99.958;2022-10-31T09:22:31;100576.16;;;38.05;40.81
74230;BME280;62589;12.568;99.958;2022-10-31T09:24:58;100592.63;;;38.03;40.66
74230;BME280;62589;12.568;99.958;2022-10-31T09:27:24;100584.28;;;37.99;41.26
74230;BME280;62589;12.568;99.958;2022-10-31T09:29:51;100591.53;;;37.97;41.19
74230;BME280;62589;12.568;99.958;2022-10-31T09:32:18;100599.56;;;37.95;41.58
74230;BME280;62589;12.568;99.958;2022-10-31T09:34:45;100592.03;;;37.92;41.46
74230;BME280;62589;12.568;99.958;2022-10-31T09:37:12;100598.06;;;37.90;41.45
74230;BME280;62589;12.568;99.958;2022-10-31T09:39:39;100595.31;;;37.87;41.27
74230;BME280;62589;12.568;99.958;2022-10-31T09:54:04;100609.56;;;37.72;42.03
74230;BME280;62589;12.568;99.958;2022-10-31T09:56:33;100611.22;;;37.70;41.86
74230;BME280;62589;12.568;99.958;2022-10-31T09:59:03;100621.69;;;37.66;42.18
74230;BME280;62589;12.568;99.958;2022-10-31T10:01:54;100620.91;;;37.65;41.81
74230;BME280;62589;12.568;99.958;2022-10-31T10:04:44;100622.16;;;37.61;42.03
74230;BME280;62589;12.568;99.958;2022-10-31T10:09:57;100620.91;;;37.65;42.09
74230;BME280;62589;12.568;99.958;2022-10-31T10:15:55;100629.50;;;37.51;42.09
74230;BME280;62589;12.568;99.958;2022-10-31T10:18:43;100628.03;;;37.43;42.37
74230;BME280;62589;12.568;99.958;2022-10-31T10:21:33;100631.69;;;37.40;42.88
74230;BME280;62589;12.568;99.958;2022-10-31T10:30:19;100644.22;;;37.32;42.66
74230;BME280;62589;12.568;99.958;2022-10-31T10:32:56;100640.28;;;37.26;43.17
74230;BME280;62589;12.568;99.958;2022-10-31T10:35:40;100646.31;;;37.24;42.88
74230;BME280;62589;12.568;99.958;2022-10-31T10:38:25;100653.53;;;37.22;43.20
74230;BME280;62589;12.568;99.958;2022-10-31T10:40:54;100652.00;;;37.17;43.26
74230;BME280;62589;12.568;99.958;2022-10-31T10:43:30;100653.22;;;37.16;43.67
74230;BME280;62589;12.568;99.958;2022-10-31T10:49:18;100656.84;;;37.13;43.54
74230;BME280;62589;12.568;99.958;2022-10-31T10:51:57;100666.13;;;37.06;43.86
74230;BME280;62589;12.568;99.958;2022-10-31T10:57:47;100666.53;;;37.05;44.09
74230;BME280;62589;12.568;99.958;2022-10-31T11:00:29;100669.47;;;36.98;44.27
74230;BME280;62589;12.568;99.958;2022-10-31T11:02:57;100678.28;;;36.96;44.24
74230;BME280;62589;12.568;99.958;2022-10-31T11:08:28;100689.91;;;36.91;44.96
74230;BME280;62589;12.568;99.958;2022-10-31T11:11:04;100690.75;;;36.88;44.91
74230;BME280;62589;12.568;99.958;2022-10-31T11:13:35;100680.38;;;36.85;44.77
74230;BME280;62589;12.568;99.958;2022-10-31T11:16:13;100686.03;;;36.81;45.04
74230;BME280;62589;12.568;99.958;2022-10-31T11:18:44;100688.09;;;36.77;45.30
74230;BME280;62589;12.568;99.958;2022-10-31T11:21:28;100691.31;;;36.76;45.16
74230;BME280;62589;12.568;99.958;2022-10-31T11:24:16;100695.69;;;36.77;45.37
74230;BME280;62589;12.568;99.958;2022-10-31T11:26:45;100703.34;;;36.69;45.24
74230;BME280;62589;12.568;99.958;2022-10-31T11:29:20;100699.38;;;36.67;45.51
74230;BME280;62589;12.568;99.958;2022-10-31T11:31:53;100705.78;;;36.64;45.25
74230;BME280;62589;12.568;99.958;2022-10-31T11:34:32;100705.78;;;36.64;45.31
74230;BME280;62589;12.568;99.958;2022-10-31T11:39:44;100705.44;;;36.58;45.03
74230;BME280;62589;12.568;99.958;2022-10-31T11:42:11;100707.09;;;36.56;45.26
74230;BME280;62589;12.568;99.958;2022-10-31T11:44:42;100715.91;;;36.54;45.26
74230;BME280;62589;12.568;99.958;2022-10-31T11:47:14;100723.91;;;36.52;45.37
74230;BME280;62589;12.568;99.958;2022-10-31T11:49:44;100719.94;;;36.49;45.36
74230;BME280;62589;12.568;99.958;2022-10-31T11:52:31;100731.88;;;36.54;45.49
74230;BME280;62589;12.568;99.958;2022-10-31T11:55:15;100729.94;;;36.47;45.38
74230;BME280;62589;12.568;99.958;2022-10-31T11:57:45;100729.97;;;36.43;45.09
74230;BME280;62589;12.568;99.958;2022-10-31T12:00:25;100732.78;;;36.43;45.28
74230;BME280;62589;12.568;99.958;2022-10-31T12:05:44;100738.00;;;36.38;45.20
74230;BME280;62589;12.568;99.958;2022-10-31T12:08:12;100751.22;;;36.37;44.89
74230;BME280;62589;12.568;99.958;2022-10-31T12:11:03;100754.44;;;36.36;45.05
74230;BME280;62589;12.568;99.958;2022-10-31T12:13:56;100752.03;;;36.34;45.14
74230;BME280;62589;12.568;99.958;2022-10-31T12:16:37;100757.66;;;36.31;44.99
74230;BME280;62589;12.568;99.958;2022-10-31T12:19:35;100752.06;;;36.31;45.31
74230;BME280;62589;12.568;99.958;2022-10-31T12:37:26;100772.50;;;36.17;44.52
74230;BME280;62589;12.568;99.958;2022-10-31T12:45:56;100788.56;;;36.09;44.71
74230;BME280;62589;12.568;99.958;2022-10-31T12:57:54;100811.75;;;36.03;46.12
74230;BME280;62589;12.568;99.958;2022-10-31T13:00:28;100821.75;;;35.97;46.03
74230;BME280;62589;12.568;99.958;2022-10-31T13:05:48;100839.38;;;35.90;46.53
74230;BME280;62589;12.568;99.958;2022-10-31T13:08:45;100839.38;;;35.90;46.53
74230;BME280;62589;12.568;99.958;2022-10-31T13:14:32;100838.59;;;35.86;47.22
74230;BME280;62589;12.568;99.958;2022-10-31T13:17:01;100841.81;;;35.77;47.39
74230;BME280;62589;12.568;99.958;2022-10-31T13:19:41;100853.00;;;35.77;47.97
74230;BME280;62589;12.568;99.958;2022-10-31T13:22:21;100851.41;;;35.76;47.64
74230;BME280;62589;12.568;99.958;2022-10-31T13:28:05;100862.19;;;35.71;47.14
74230;BME280;62589;12.568;99.958;2022-10-31T13:30:40;100867.81;;;35.67;47.06
74230;BME280;62589;12.568;99.958;2022-10-31T13:33:29;100873.00;;;35.65;47.08
74230;BME280;62589;12.568;99.958;2022-10-31T13:36:13;100878.19;;;35.63;46.93
74230;BME280;62589;12.568;99.958;2022-10-31T13:38:58;100878.59;;;35.62;47.21
74230;BME280;62589;12.568;99.958;2022-10-31T13:41:46;100884.56;;;35.60;47.49
74230;BME280;62589;12.568;99.958;2022-10-31T13:44:24;100877.00;;;35.57;47.42
74230;BME280;62589;12.568;99.958;2022-10-31T13:47:00;100885.78;;;35.56;47.44
74230;BME280;62589;12.568;99.958;2022-10-31T13:49:45;100886.56;;;35.56;47.66
74230;BME280;62589;12.568;99.958;2022-10-31T13:52:23;100888.63;;;35.48;47.59
74230;BME280;62589;12.568;99.958;2022-10-31T13:54:52;100890.63;;;35.48;47.55
74230;BME280;62589;12.568;99.958;2022-10-31T13:57:43;100897.41;;;35.47;47.50
74230;BME280;62589;12.568;99.958;2022-10-31T14:00:29;100902.19;;;35.46;47.34
74230;BME280;62589;12.568;99.958;2022-10-31T14:03:01;100902.59;;;35.41;47.47
74230;BME280;62589;12.568;99.958;2022-10-31T14:05:35;100900.59;;;35.38;48.08
74230;BME280;62589;12.568;99.958;2022-10-31T14:08:15;100911.78;;;35.35;47.69
74230;BME280;62589;12.568;99.958;2022-10-31T14:10:49;100903.41;;;35.35;47.85
74230;BME280;62589;12.568;99.958;2022-10-31T14:13:34;100907.81;;;35.32;47.45
74230;BME280;62589;12.568;99.958;2022-10-31T14:16:19;100908.63;;;35.33;47.29
74230;BME280;62589;12.568;99.958;2022-10-31T14:18:51;100912.22;;;35.30;47.11
74230;BME280;62589;12.568;99.958;2022-10-31T14:21:37;100917.00;;;35.29;47.47
74230;BME280;62589;12.568;99.958;2022-10-31T14:27:30;100916.56;;;35.24;47.17
74230;BME280;62589;12.568;99.958;2022-10-31T14:29:50;100922.16;;;35.20;47.49
74230;BME280;62589;12.568;99.958;2022-10-31T14:32:25;100929.72;;;35.16;47.93
74230;BME280;62589;12.568;99.958;2022-10-31T14:34:56;100923.38;;;35.12;48.08
74230;BME280;62589;12.568;99.958;2022-10-31T14:43:49;100933.72;;;35.04;48.52
74230;BME280;62589;12.568;99.958;2022-10-31T14:46:46;100932.94;;;35.04;48.60
74230;BME280;62589;12.568;99.958;2022-10-31T14:49:57;100928.16;;;35.04;48.49
74230;BME280;62589;12.568;99.958;2022-10-31T14:52:21;100939.72;;;34.99;48.58
74230;BME280;62589;12.568;99.958;2022-10-31T14:54:53;100931.34;;;34.96;48.35
74230;BME280;62589;12.568;99.958;2022-10-31T14:57:34;100939.31;;;34.94;48.35
74230;BME280;62589;12.568;99.958;2022-10-31T15:00:06;100940.53;;;34.89;48.27
74230;BME280;62589;12.568;99.958;2022-10-31T15:05:33;100940.53;;;34.86;48.03